首页
METAR-TAF:

METAR-TAF

机场 :

拉蒂纳, 意大利

纬度: 41-33N, 经度: 012-54E, 海拔: 25米

当前天气观测

该预报发布于1小时和3分钟前的10:55 UTC
风速8节,风向西北
温度 15°C
湿度 18%
气压 1014 hPa
能见度10公里或以上
1500米以下无云,无积雨云

METAR: LIRL 271055Z 32008KT CAVOK 15/M09 Q1014 RMK FEW FEW180 MON LIB NC VIS MIN 9999 WIND THR12 33010KT WIND THR30 33010KT BLU

时间: 12:58 (11:58 UTC)

预报

该预报发布于58分钟前的11:00 UTC
预报有效从27日的 12点(UTC)到 27日的 21点(UTC)
风速10节,风向北转西北
能见度10公里或以上
1500米以下无云,无积雨云
成为
从 27日的 15点(UTC)到 27日的 17点(UTC)
风速10节,风向东南
能见度10公里或以上
少量云层高于2500英尺
散云层高于6000英尺
短暂存在
从 27日的 18点(UTC)到 27日的 21点(UTC)
能見度: 6000
多云层高于2000英尺

TAF: LIRL 271100Z 2712/2721 33010KT CAVOK BECMG 2715/2717 14010KT 9999 FEW025 SCT060 TEMPO 2718/2721 6000 RA BKN020

超过4000个机场的气象观测和天气预报(METAR&TAF报告)。

可查询的气象台以黄色和红色小点在地图上表示。

将鼠标移到小点上方,可查看气象台名称。

然后点击查看天气观测和预报。

如需切换地图:点击带黑十字的绿色按钮放大地图;点击带横线的绿色按钮缩小地图;或者点击绿色箭头查看邻近地区的地图。


METAR-TAF: